sensor_id;sensor_type;location;lat;lon;timestamp;P1;durP1;ratioP1;P2;durP2;ratioP2
45728;SDS011;31439;53.512;10.206;2022-11-20T00:00:10;6.40;;;3.63;;
45728;SDS011;31439;53.512;10.206;2022-11-20T00:02:37;6.72;;;3.90;;
45728;SDS011;31439;53.512;10.206;2022-11-20T00:05:03;6.15;;;3.90;;
45728;SDS011;31439;53.512;10.206;2022-11-20T00:07:29;5.10;;;3.35;;
45728;SDS011;31439;53.512;10.206;2022-11-20T00:09:55;5.72;;;3.13;;
45728;SDS011;31439;53.512;10.206;2022-11-20T00:12:21;7.57;;;3.67;;
45728;SDS011;31439;53.512;10.206;2022-11-20T00:14:47;6.82;;;4.13;;
45728;SDS011;31439;53.512;10.206;2022-11-20T00:17:13;6.05;;;3.80;;
45728;SDS011;31439;53.512;10.206;2022-11-20T00:19:39;6.90;;;4.10;;
45728;SDS011;31439;53.512;10.206;2022-11-20T00:22:05;6.22;;;4.22;;
45728;SDS011;31439;53.512;10.206;2022-11-20T00:24:31;6.80;;;3.72;;
45728;SDS011;31439;53.512;10.206;2022-11-20T00:26:57;7.72;;;4.07;;
45728;SDS011;31439;53.512;10.206;2022-11-20T00:29:23;8.07;;;3.90;;
45728;SDS011;31439;53.512;10.206;2022-11-20T00:31:49;5.82;;;3.90;;
45728;SDS011;31439;53.512;10.206;2022-11-20T00:34:15;6.55;;;4.18;;
45728;SDS011;31439;53.512;10.206;2022-11-20T00:36:41;6.13;;;3.60;;
45728;SDS011;31439;53.512;10.206;2022-11-20T00:39:07;7.57;;;3.70;;
45728;SDS011;31439;53.512;10.206;2022-11-20T00:41:33;6.38;;;3.95;;
45728;SDS011;31439;53.512;10.206;2022-11-20T00:43:59;6.70;;;3.90;;
45728;SDS011;31439;53.512;10.206;2022-11-20T00:46:26;6.65;;;3.83;;
45728;SDS011;31439;53.512;10.206;2022-11-20T00:48:53;8.00;;;4.00;;
45728;SDS011;31439;53.512;10.206;2022-11-20T00:51:20;7.45;;;3.65;;
45728;SDS011;31439;53.512;10.206;2022-11-20T00:53:46;7.30;;;3.72;;
45728;SDS011;31439;53.512;10.206;2022-11-20T00:56:13;8.80;;;3.78;;
45728;SDS011;31439;53.512;10.206;2022-11-20T00:58:40;6.78;;;3.85;;
45728;SDS011;31439;53.512;10.206;2022-11-20T01:01:13;7.00;;;3.60;;
45728;SDS011;31439;53.512;10.206;2022-11-20T01:03:40;6.85;;;3.80;;
45728;SDS011;31439;53.512;10.206;2022-11-20T01:06:09;6.47;;;4.07;;
45728;SDS011;31439;53.512;10.206;2022-11-20T01:08:35;9.35;;;4.47;;
45728;SDS011;31439;53.512;10.206;2022-11-20T01:11:02;7.60;;;4.65;;
45728;SDS011;31439;53.512;10.206;2022-11-20T01:13:29;8.63;;;4.65;;
45728;SDS011;31439;53.512;10.206;2022-11-20T01:16:20;7.30;;;4.60;;
45728;SDS011;31439;53.512;10.206;2022-11-20T01:18:47;8.00;;;4.65;;
45728;SDS011;31439;53.512;10.206;2022-11-20T01:21:15;7.07;;;4.85;;
45728;SDS011;31439;53.512;10.206;2022-11-20T01:23:42;8.25;;;4.43;;
45728;SDS011;31439;53.512;10.206;2022-11-20T01:26:12;7.40;;;4.45;;
45728;SDS011;31439;53.512;10.206;2022-11-20T01:28:39;6.97;;;4.85;;
45728;SDS011;31439;53.512;10.206;2022-11-20T01:31:22;8.52;;;4.82;;
45728;SDS011;31439;53.512;10.206;2022-11-20T01:33:49;10.20;;;4.75;;
45728;SDS011;31439;53.512;10.206;2022-11-20T01:36:16;7.70;;;4.93;;
45728;SDS011;31439;53.512;10.206;2022-11-20T01:38:42;7.22;;;4.63;;
45728;SDS011;31439;53.512;10.206;2022-11-20T01:41:09;8.77;;;5.13;;
45728;SDS011;31439;53.512;10.206;2022-11-20T01:43:36;7.35;;;4.72;;
45728;SDS011;31439;53.512;10.206;2022-11-20T01:46:08;8.70;;;4.68;;
45728;SDS011;31439;53.512;10.206;2022-11-20T01:48:44;6.70;;;4.88;;
45728;SDS011;31439;53.512;10.206;2022-11-20T01:51:32;8.10;;;4.47;;
45728;SDS011;31439;53.512;10.206;2022-11-20T01:54:00;7.72;;;4.88;;
45728;SDS011;31439;53.512;10.206;2022-11-20T01:56:26;10.95;;;4.90;;
45728;SDS011;31439;53.512;10.206;2022-11-20T01:58:54;8.10;;;4.82;;
45728;SDS011;31439;53.512;10.206;2022-11-20T02:01:22;7.88;;;4.82;;
45728;SDS011;31439;53.512;10.206;2022-11-20T02:03:49;8.48;;;5.00;;
45728;SDS011;31439;53.512;10.206;2022-11-20T02:08:47;8.77;;;4.95;;
45728;SDS011;31439;53.512;10.206;2022-11-20T02:11:13;6.15;;;4.50;;
45728;SDS011;31439;53.512;10.206;2022-11-20T02:13:40;7.97;;;4.60;;
45728;SDS011;31439;53.512;10.206;2022-11-20T02:16:13;8.25;;;4.95;;
45728;SDS011;31439;53.512;10.206;2022-11-20T02:18:40;7.55;;;5.00;;
45728;SDS011;31439;53.512;10.206;2022-11-20T02:21:08;11.00;;;5.60;;
45728;SDS011;31439;53.512;10.206;2022-11-20T02:24:00;8.32;;;5.28;;
45728;SDS011;31439;53.512;10.206;2022-11-20T02:26:24;7.07;;;4.90;;
45728;SDS011;31439;53.512;10.206;2022-11-20T02:28:51;9.32;;;4.78;;
45728;SDS011;31439;53.512;10.206;2022-11-20T02:31:17;10.25;;;4.95;;
45728;SDS011;31439;53.512;10.206;2022-11-20T02:33:43;7.00;;;4.60;;
45728;SDS011;31439;53.512;10.206;2022-11-20T02:36:10;7.22;;;4.78;;
45728;SDS011;31439;53.512;10.206;2022-11-20T02:38:37;13.68;;;5.03;;
45728;SDS011;31439;53.512;10.206;2022-11-20T02:41:03;6.68;;;4.35;;
45728;SDS011;31439;53.512;10.206;2022-11-20T02:43:29;7.70;;;4.93;;
45728;SDS011;31439;53.512;10.206;2022-11-20T02:45:55;6.97;;;4.47;;
45728;SDS011;31439;53.512;10.206;2022-11-20T02:48:21;9.18;;;5.10;;
45728;SDS011;31439;53.512;10.206;2022-11-20T02:50:48;9.02;;;4.70;;
45728;SDS011;31439;53.512;10.206;2022-11-20T02:53:14;8.77;;;4.72;;
45728;SDS011;31439;53.512;10.206;2022-11-20T02:55:40;6.50;;;4.63;;
45728;SDS011;31439;53.512;10.206;2022-11-20T02:58:06;6.95;;;4.88;;
45728;SDS011;31439;53.512;10.206;2022-11-20T03:00:32;6.63;;;4.70;;
45728;SDS011;31439;53.512;10.206;2022-11-20T03:02:58;6.85;;;4.70;;
45728;SDS011;31439;53.512;10.206;2022-11-20T03:05:24;8.43;;;4.85;;
45728;SDS011;31439;53.512;10.206;2022-11-20T03:07:50;7.95;;;4.25;;
45728;SDS011;31439;53.512;10.206;2022-11-20T03:10:16;7.32;;;4.68;;
45728;SDS011;31439;53.512;10.206;2022-11-20T03:12:42;5.95;;;4.55;;
45728;SDS011;31439;53.512;10.206;2022-11-20T03:15:09;6.03;;;4.43;;
45728;SDS011;31439;53.512;10.206;2022-11-20T03:17:35;7.28;;;4.63;;
45728;SDS011;31439;53.512;10.206;2022-11-20T03:20:01;8.93;;;4.88;;
45728;SDS011;31439;53.512;10.206;2022-11-20T03:22:30;7.63;;;4.32;;
45728;SDS011;31439;53.512;10.206;2022-11-20T03:24:56;9.13;;;4.90;;
45728;SDS011;31439;53.512;10.206;2022-11-20T03:27:22;8.18;;;4.85;;
45728;SDS011;31439;53.512;10.206;2022-11-20T03:29:48;7.18;;;4.18;;
45728;SDS011;31439;53.512;10.206;2022-11-20T03:32:15;8.38;;;4.88;;
45728;SDS011;31439;53.512;10.206;2022-11-20T03:34:41;7.13;;;4.40;;
45728;SDS011;31439;53.512;10.206;2022-11-20T03:37:07;6.40;;;4.38;;
45728;SDS011;31439;53.512;10.206;2022-11-20T03:39:33;4.88;;;3.92;;
45728;SDS011;31439;53.512;10.206;2022-11-20T03:41:59;7.43;;;4.20;;
45728;SDS011;31439;53.512;10.206;2022-11-20T03:44:25;8.40;;;4.57;;
45728;SDS011;31439;53.512;10.206;2022-11-20T03:46:51;7.65;;;4.40;;
45728;SDS011;31439;53.512;10.206;2022-11-20T03:49:17;7.03;;;4.35;;
45728;SDS011;31439;53.512;10.206;2022-11-20T03:51:43;8.32;;;4.70;;
45728;SDS011;31439;53.512;10.206;2022-11-20T03:54:09;6.82;;;4.57;;
45728;SDS011;31439;53.512;10.206;2022-11-20T03:56:36;7.82;;;4.65;;
45728;SDS011;31439;53.512;10.206;2022-11-20T03:59:03;9.65;;;4.90;;
45728;SDS011;31439;53.512;10.206;2022-11-20T04:01:30;7.40;;;4.80;;
45728;SDS011;31439;53.512;10.206;2022-11-20T04:03:57;9.50;;;4.97;;
45728;SDS011;31439;53.512;10.206;2022-11-20T04:06:24;8.88;;;5.10;;
45728;SDS011;31439;53.512;10.206;2022-11-20T04:08:50;7.60;;;5.00;;
45728;SDS011;31439;53.512;10.206;2022-11-20T04:11:20;10.32;;;5.57;;
45728;SDS011;31439;53.512;10.206;2022-11-20T04:13:47;7.63;;;4.88;;
45728;SDS011;31439;53.512;10.206;2022-11-20T04:16:14;7.00;;;5.15;;
45728;SDS011;31439;53.512;10.206;2022-11-20T04:18:40;7.40;;;4.95;;
45728;SDS011;31439;53.512;10.206;2022-11-20T04:21:06;8.05;;;4.70;;
45728;SDS011;31439;53.512;10.206;2022-11-20T04:23:33;8.00;;;4.85;;
45728;SDS011;31439;53.512;10.206;2022-11-20T04:26:06;8.13;;;5.03;;
45728;SDS011;31439;53.512;10.206;2022-11-20T04:28:32;7.68;;;4.60;;
45728;SDS011;31439;53.512;10.206;2022-11-20T04:31:05;6.90;;;4.00;;
45728;SDS011;31439;53.512;10.206;2022-11-20T04:33:32;6.20;;;4.32;;
45728;SDS011;31439;53.512;10.206;2022-11-20T04:36:02;6.70;;;4.05;;
45728;SDS011;31439;53.512;10.206;2022-11-20T04:38:28;8.30;;;4.50;;
45728;SDS011;31439;53.512;10.206;2022-11-20T04:40:58;6.97;;;4.53;;
45728;SDS011;31439;53.512;10.206;2022-11-20T04:43:24;6.53;;;3.95;;
45728;SDS011;31439;53.512;10.206;2022-11-20T04:45:51;6.22;;;4.10;;
45728;SDS011;31439;53.512;10.206;2022-11-20T04:48:17;8.30;;;4.20;;
45728;SDS011;31439;53.512;10.206;2022-11-20T04:50:43;7.30;;;4.18;;
45728;SDS011;31439;53.512;10.206;2022-11-20T04:53:09;8.10;;;4.25;;
45728;SDS011;31439;53.512;10.206;2022-11-20T04:55:35;6.25;;;3.70;;
45728;SDS011;31439;53.512;10.206;2022-11-20T04:58:01;7.88;;;4.20;;
45728;SDS011;31439;53.512;10.206;2022-11-20T05:00:27;8.55;;;4.50;;
45728;SDS011;31439;53.512;10.206;2022-11-20T05:02:53;6.35;;;3.65;;
45728;SDS011;31439;53.512;10.206;2022-11-20T05:05:19;6.22;;;4.20;;
45728;SDS011;31439;53.512;10.206;2022-11-20T05:07:45;6.00;;;3.65;;
45728;SDS011;31439;53.512;10.206;2022-11-20T05:10:11;6.13;;;3.85;;
45728;SDS011;31439;53.512;10.206;2022-11-20T05:12:38;6.22;;;3.75;;
45728;SDS011;31439;53.512;10.206;2022-11-20T05:15:04;5.85;;;4.10;;
45728;SDS011;31439;53.512;10.206;2022-11-20T05:17:30;6.82;;;4.40;;
45728;SDS011;31439;53.512;10.206;2022-11-20T05:19:56;6.53;;;4.32;;
45728;SDS011;31439;53.512;10.206;2022-11-20T05:22:22;8.35;;;3.90;;
45728;SDS011;31439;53.512;10.206;2022-11-20T05:24:48;5.85;;;4.22;;
45728;SDS011;31439;53.512;10.206;2022-11-20T05:27:14;8.13;;;4.78;;
45728;SDS011;31439;53.512;10.206;2022-11-20T05:29:40;5.88;;;3.78;;
45728;SDS011;31439;53.512;10.206;2022-11-20T05:32:07;6.63;;;4.10;;
45728;SDS011;31439;53.512;10.206;2022-11-20T05:34:34;8.02;;;4.30;;
45728;SDS011;31439;53.512;10.206;2022-11-20T05:37:00;6.18;;;4.30;;
45728;SDS011;31439;53.512;10.206;2022-11-20T05:39:27;7.70;;;4.32;;
45728;SDS011;31439;53.512;10.206;2022-11-20T05:41:53;7.30;;;4.18;;
45728;SDS011;31439;53.512;10.206;2022-11-20T05:44:37;8.10;;;4.32;;
45728;SDS011;31439;53.512;10.206;2022-11-20T05:47:04;8.88;;;4.50;;
45728;SDS011;31439;53.512;10.206;2022-11-20T05:49:30;7.85;;;4.35;;
45728;SDS011;31439;53.512;10.206;2022-11-20T05:51:56;7.72;;;4.80;;
45728;SDS011;31439;53.512;10.206;2022-11-20T05:54:22;7.68;;;4.78;;
45728;SDS011;31439;53.512;10.206;2022-11-20T05:56:48;6.65;;;4.82;;
45728;SDS011;31439;53.512;10.206;2022-11-20T05:59:14;8.35;;;4.82;;
45728;SDS011;31439;53.512;10.206;2022-11-20T06:01:40;6.63;;;4.47;;
45728;SDS011;31439;53.512;10.206;2022-11-20T06:04:06;6.13;;;4.65;;
45728;SDS011;31439;53.512;10.206;2022-11-20T06:06:32;7.70;;;5.28;;
45728;SDS011;31439;53.512;10.206;2022-11-20T06:08:58;7.10;;;5.25;;
45728;SDS011;31439;53.512;10.206;2022-11-20T06:11:24;8.77;;;4.90;;
45728;SDS011;31439;53.512;10.206;2022-11-20T06:13:51;9.43;;;5.15;;
45728;SDS011;31439;53.512;10.206;2022-11-20T06:16:17;7.53;;;5.38;;
45728;SDS011;31439;53.512;10.206;2022-11-20T06:18:44;8.32;;;5.60;;
45728;SDS011;31439;53.512;10.206;2022-11-20T06:21:12;8.43;;;5.97;;
45728;SDS011;31439;53.512;10.206;2022-11-20T06:23:38;8.77;;;5.80;;
45728;SDS011;31439;53.512;10.206;2022-11-20T06:26:06;10.25;;;5.55;;
45728;SDS011;31439;53.512;10.206;2022-11-20T06:28:32;9.88;;;6.15;;
45728;SDS011;31439;53.512;10.206;2022-11-20T06:30:59;10.23;;;6.20;;
45728;SDS011;31439;53.512;10.206;2022-11-20T06:33:25;8.80;;;5.85;;
45728;SDS011;31439;53.512;10.206;2022-11-20T06:35:51;8.98;;;6.13;;
45728;SDS011;31439;53.512;10.206;2022-11-20T06:38:17;8.80;;;5.65;;
45728;SDS011;31439;53.512;10.206;2022-11-20T06:40:43;8.55;;;5.78;;
45728;SDS011;31439;53.512;10.206;2022-11-20T06:43:09;8.48;;;5.78;;
45728;SDS011;31439;53.512;10.206;2022-11-20T06:45:36;8.18;;;5.78;;
45728;SDS011;31439;53.512;10.206;2022-11-20T06:48:02;9.05;;;5.63;;
45728;SDS011;31439;53.512;10.206;2022-11-20T06:50:28;13.07;;;6.22;;
45728;SDS011;31439;53.512;10.206;2022-11-20T06:52:54;8.48;;;6.10;;
45728;SDS011;31439;53.512;10.206;2022-11-20T06:55:20;10.18;;;6.30;;
45728;SDS011;31439;53.512;10.206;2022-11-20T06:57:46;10.32;;;6.25;;
45728;SDS011;31439;53.512;10.206;2022-11-20T07:00:13;8.57;;;6.10;;
45728;SDS011;31439;53.512;10.206;2022-11-20T07:02:39;10.40;;;6.00;;
45728;SDS011;31439;53.512;10.206;2022-11-20T07:05:05;8.00;;;6.00;;
45728;SDS011;31439;53.512;10.206;2022-11-20T07:07:31;8.45;;;5.80;;
45728;SDS011;31439;53.512;10.206;2022-11-20T07:09:57;9.35;;;5.95;;
45728;SDS011;31439;53.512;10.206;2022-11-20T07:12:23;8.40;;;5.88;;
45728;SDS011;31439;53.512;10.206;2022-11-20T07:14:49;10.13;;;5.80;;
45728;SDS011;31439;53.512;10.206;2022-11-20T07:17:15;9.48;;;6.35;;
45728;SDS011;31439;53.512;10.206;2022-11-20T07:19:41;10.07;;;6.57;;
45728;SDS011;31439;53.512;10.206;2022-11-20T07:22:08;11.23;;;6.65;;
45728;SDS011;31439;53.512;10.206;2022-11-20T07:24:34;10.57;;;7.13;;
45728;SDS011;31439;53.512;10.206;2022-11-20T07:27:00;11.73;;;7.35;;
45728;SDS011;31439;53.512;10.206;2022-11-20T07:29:26;12.50;;;7.35;;
45728;SDS011;31439;53.512;10.206;2022-11-20T07:31:52;11.45;;;7.85;;
45728;SDS011;31439;53.512;10.206;2022-11-20T07:34:20;13.43;;;7.97;;
45728;SDS011;31439;53.512;10.206;2022-11-20T07:36:46;11.50;;;7.90;;
45728;SDS011;31439;53.512;10.206;2022-11-20T07:39:12;12.27;;;7.68;;
45728;SDS011;31439;53.512;10.206;2022-11-20T07:41:38;10.88;;;8.18;;
45728;SDS011;31439;53.512;10.206;2022-11-20T07:44:04;10.88;;;8.20;;
45728;SDS011;31439;53.512;10.206;2022-11-20T07:46:30;11.85;;;7.95;;
45728;SDS011;31439;53.512;10.206;2022-11-20T07:48:56;12.90;;;8.32;;
45728;SDS011;31439;53.512;10.206;2022-11-20T07:51:22;11.73;;;8.07;;
45728;SDS011;31439;53.512;10.206;2022-11-20T07:53:52;12.18;;;8.32;;
45728;SDS011;31439;53.512;10.206;2022-11-20T07:56:18;13.52;;;8.93;;
45728;SDS011;31439;53.512;10.206;2022-11-20T07:58:44;13.60;;;9.13;;
45728;SDS011;31439;53.512;10.206;2022-11-20T08:01:10;12.85;;;8.63;;
45728;SDS011;31439;53.512;10.206;2022-11-20T08:03:37;14.40;;;9.18;;
45728;SDS011;31439;53.512;10.206;2022-11-20T08:06:03;12.40;;;8.40;;
45728;SDS011;31439;53.512;10.206;2022-11-20T08:08:29;12.02;;;7.72;;
45728;SDS011;31439;53.512;10.206;2022-11-20T08:10:58;11.23;;;7.05;;
45728;SDS011;31439;53.512;10.206;2022-11-20T08:13:43;11.15;;;6.78;;
45728;SDS011;31439;53.512;10.206;2022-11-20T08:16:28;9.02;;;6.47;;
45728;SDS011;31439;53.512;10.206;2022-11-20T08:18:54;9.48;;;7.03;;
45728;SDS011;31439;53.512;10.206;2022-11-20T08:21:21;11.35;;;7.55;;
45728;SDS011;31439;53.512;10.206;2022-11-20T08:23:47;12.40;;;7.85;;
45728;SDS011;31439;53.512;10.206;2022-11-20T08:26:13;11.18;;;7.90;;
45728;SDS011;31439;53.512;10.206;2022-11-20T08:28:42;9.95;;;7.72;;
45728;SDS011;31439;53.512;10.206;2022-11-20T08:31:29;11.00;;;8.05;;
45728;SDS011;31439;53.512;10.206;2022-11-20T08:34:04;12.27;;;8.15;;
45728;SDS011;31439;53.512;10.206;2022-11-20T08:36:33;10.57;;;8.15;;
45728;SDS011;31439;53.512;10.206;2022-11-20T08:39:02;11.52;;;7.80;;
45728;SDS011;31439;53.512;10.206;2022-11-20T08:41:48;11.52;;;7.57;;
45728;SDS011;31439;53.512;10.206;2022-11-20T08:44:14;9.82;;;7.30;;
45728;SDS011;31439;53.512;10.206;2022-11-20T08:46:43;11.63;;;7.75;;
45728;SDS011;31439;53.512;10.206;2022-11-20T08:49:14;11.18;;;8.25;;
45728;SDS011;31439;53.512;10.206;2022-11-20T08:51:40;11.60;;;7.30;;
45728;SDS011;31439;53.512;10.206;2022-11-20T08:57:36;9.23;;;6.20;;
45728;SDS011;31439;53.512;10.206;2022-11-20T09:00:04;8.15;;;6.05;;
45728;SDS011;31439;53.512;10.206;2022-11-20T09:02:30;8.35;;;5.53;;
45728;SDS011;31439;53.512;10.206;2022-11-20T09:04:59;7.10;;;5.40;;
45728;SDS011;31439;53.512;10.206;2022-11-20T09:07:27;6.20;;;4.60;;
45728;SDS011;31439;53.512;10.206;2022-11-20T09:09:53;6.25;;;4.35;;
45728;SDS011;31439;53.512;10.206;2022-11-20T09:12:22;6.13;;;4.93;;
45728;SDS011;31439;53.512;10.206;2022-11-20T09:14:48;6.93;;;5.00;;
45728;SDS011;31439;53.512;10.206;2022-11-20T09:17:17;5.68;;;4.35;;
45728;SDS011;31439;53.512;10.206;2022-11-20T09:19:45;6.63;;;4.03;;
45728;SDS011;31439;53.512;10.206;2022-11-20T09:22:11;5.95;;;4.20;;
45728;SDS011;31439;53.512;10.206;2022-11-20T09:24:40;5.30;;;3.90;;
45728;SDS011;31439;53.512;10.206;2022-11-20T09:27:10;7.15;;;4.72;;
45728;SDS011;31439;53.512;10.206;2022-11-20T09:29:36;6.35;;;4.60;;
45728;SDS011;31439;53.512;10.206;2022-11-20T09:32:05;5.60;;;3.58;;
45728;SDS011;31439;53.512;10.206;2022-11-20T09:34:34;5.20;;;3.88;;
45728;SDS011;31439;53.512;10.206;2022-11-20T09:37:00;4.72;;;3.60;;
45728;SDS011;31439;53.512;10.206;2022-11-20T09:39:29;4.50;;;3.60;;
45728;SDS011;31439;53.512;10.206;2022-11-20T09:47:07;6.20;;;3.20;;
45728;SDS011;31439;53.512;10.206;2022-11-20T09:54:59;4.25;;;2.90;;
45728;SDS011;31439;53.512;10.206;2022-11-20T09:57:32;4.20;;;3.05;;
45728;SDS011;31439;53.512;10.206;2022-11-20T10:00:00;4.90;;;3.63;;
45728;SDS011;31439;53.512;10.206;2022-11-20T10:02:35;6.28;;;3.15;;
45728;SDS011;31439;53.512;10.206;2022-11-20T10:05:10;3.80;;;3.00;;
45728;SDS011;31439;53.512;10.206;2022-11-20T10:21:41;5.03;;;3.50;;
45728;SDS011;31439;53.512;10.206;2022-11-20T10:29:34;4.68;;;3.63;;
45728;SDS011;31439;53.512;10.206;2022-11-20T10:32:02;6.47;;;3.92;;
45728;SDS011;31439;53.512;10.206;2022-11-20T10:37:32;4.93;;;3.83;;
45728;SDS011;31439;53.512;10.206;2022-11-20T10:40:14;4.70;;;3.83;;
45728;SDS011;31439;53.512;10.206;2022-11-20T10:54:16;5.20;;;3.60;;
45728;SDS011;31439;53.512;10.206;2022-11-20T11:02:54;7.95;;;3.97;;
45728;SDS011;31439;53.512;10.206;2022-11-20T11:07:54;5.30;;;3.90;;
45728;SDS011;31439;53.512;10.206;2022-11-20T11:10:24;7.55;;;3.83;;
45728;SDS011;31439;53.512;10.206;2022-11-20T11:12:52;5.68;;;4.20;;
45728;SDS011;31439;53.512;10.206;2022-11-20T11:18:23;5.45;;;3.70;;
45728;SDS011;31439;53.512;10.206;2022-11-20T11:20:50;4.93;;;3.53;;
45728;SDS011;31439;53.512;10.206;2022-11-20T11:23:35;5.10;;;3.08;;
45728;SDS011;31439;53.512;10.206;2022-11-20T11:26:03;5.20;;;3.00;;
45728;SDS011;31439;53.512;10.206;2022-11-20T11:28:29;4.05;;;3.05;;
45728;SDS011;31439;53.512;10.206;2022-11-20T11:30:55;7.07;;;3.03;;
45728;SDS011;31439;53.512;10.206;2022-11-20T11:33:23;4.13;;;3.10;;
45728;SDS011;31439;53.512;10.206;2022-11-20T11:35:56;4.15;;;3.05;;
45728;SDS011;31439;53.512;10.206;2022-11-20T11:38:44;3.70;;;3.10;;
45728;SDS011;31439;53.512;10.206;2022-11-20T11:41:14;3.25;;;2.75;;
45728;SDS011;31439;53.512;10.206;2022-11-20T11:43:48;3.88;;;3.00;;
45728;SDS011;31439;53.512;10.206;2022-11-20T11:49:48;3.50;;;2.83;;
45728;SDS011;31439;53.512;10.206;2022-11-20T11:57:43;4.38;;;3.05;;
45728;SDS011;31439;53.512;10.206;2022-11-20T12:00:14;4.50;;;3.10;;
45728;SDS011;31439;53.512;10.206;2022-11-20T12:14:11;5.00;;;3.28;;
45728;SDS011;31439;53.512;10.206;2022-11-20T12:16:42;4.50;;;3.30;;
45728;SDS011;31439;53.512;10.206;2022-11-20T12:19:10;6.18;;;4.35;;
45728;SDS011;31439;53.512;10.206;2022-11-20T12:26:35;3.47;;;2.80;;
45728;SDS011;31439;53.512;10.206;2022-11-20T13:09:29;3.42;;;2.42;;
45728;SDS011;31439;53.512;10.206;2022-11-20T13:14:46;4.15;;;2.97;;
45728;SDS011;31439;53.512;10.206;2022-11-20T13:33:30;3.20;;;2.47;;
45728;SDS011;31439;53.512;10.206;2022-11-20T13:45:25;2.83;;;2.40;;
45728;SDS011;31439;53.512;10.206;2022-11-20T14:03:22;5.30;;;2.83;;
45728;SDS011;31439;53.512;10.206;2022-11-20T14:08:52;5.60;;;2.80;;
45728;SDS011;31439;53.512;10.206;2022-11-20T14:11:27;3.55;;;2.90;;
45728;SDS011;31439;53.512;10.206;2022-11-20T14:14:04;3.75;;;2.58;;
45728;SDS011;31439;53.512;10.206;2022-11-20T14:16:44;4.60;;;3.10;;
45728;SDS011;31439;53.512;10.206;2022-11-20T14:22:15;3.78;;;2.97;;
45728;SDS011;31439;53.512;10.206;2022-11-20T14:24:46;4.40;;;2.60;;
45728;SDS011;31439;53.512;10.206;2022-11-20T14:41:29;5.88;;;3.17;;
45728;SDS011;31439;53.512;10.206;2022-11-20T14:43:57;5.03;;;3.05;;
45728;SDS011;31439;53.512;10.206;2022-11-20T14:46:24;4.00;;;2.95;;
45728;SDS011;31439;53.512;10.206;2022-11-20T14:52:10;4.15;;;3.05;;
45728;SDS011;31439;53.512;10.206;2022-11-20T15:00:55;3.97;;;2.95;;
45728;SDS011;31439;53.512;10.206;2022-11-20T15:12:15;3.90;;;3.30;;
45728;SDS011;31439;53.512;10.206;2022-11-20T15:14:45;4.90;;;3.38;;
45728;SDS011;31439;53.512;10.206;2022-11-20T15:17:12;4.95;;;3.50;;
45728;SDS011;31439;53.512;10.206;2022-11-20T15:19:38;5.82;;;3.33;;
45728;SDS011;31439;53.512;10.206;2022-11-20T15:22:04;4.45;;;3.33;;
45728;SDS011;31439;53.512;10.206;2022-11-20T15:24:30;3.92;;;3.05;;
45728;SDS011;31439;53.512;10.206;2022-11-20T15:26:56;6.40;;;3.40;;
45728;SDS011;31439;53.512;10.206;2022-11-20T15:29:22;4.45;;;3.33;;
45728;SDS011;31439;53.512;10.206;2022-11-20T15:31:49;4.25;;;3.30;;
45728;SDS011;31439;53.512;10.206;2022-11-20T15:34:16;4.90;;;3.17;;
45728;SDS011;31439;53.512;10.206;2022-11-20T15:36:42;4.97;;;3.50;;
45728;SDS011;31439;53.512;10.206;2022-11-20T15:39:09;3.38;;;2.60;;
45728;SDS011;31439;53.512;10.206;2022-11-20T15:41:36;4.03;;;2.85;;
45728;SDS011;31439;53.512;10.206;2022-11-20T15:44:03;4.72;;;3.13;;
45728;SDS011;31439;53.512;10.206;2022-11-20T15:46:30;4.20;;;3.00;;
45728;SDS011;31439;53.512;10.206;2022-11-20T15:49:02;5.82;;;2.97;;
45728;SDS011;31439;53.512;10.206;2022-11-20T15:51:29;8.95;;;3.25;;
45728;SDS011;31439;53.512;10.206;2022-11-20T15:53:56;4.32;;;3.20;;
45728;SDS011;31439;53.512;10.206;2022-11-20T15:56:22;4.20;;;3.10;;
45728;SDS011;31439;53.512;10.206;2022-11-20T15:58:49;4.63;;;3.40;;
45728;SDS011;31439;53.512;10.206;2022-11-20T16:01:16;4.75;;;3.13;;
45728;SDS011;31439;53.512;10.206;2022-11-20T16:03:42;3.80;;;3.00;;
45728;SDS011;31439;53.512;10.206;2022-11-20T16:06:08;4.80;;;3.10;;
45728;SDS011;31439;53.512;10.206;2022-11-20T16:08:34;4.72;;;3.22;;
45728;SDS011;31439;53.512;10.206;2022-11-20T16:11:00;4.88;;;3.10;;
45728;SDS011;31439;53.512;10.206;2022-11-20T16:13:27;4.15;;;2.90;;
45728;SDS011;31439;53.512;10.206;2022-11-20T16:16:17;4.03;;;3.10;;
45728;SDS011;31439;53.512;10.206;2022-11-20T16:18:44;6.03;;;3.08;;
45728;SDS011;31439;53.512;10.206;2022-11-20T16:21:11;5.60;;;3.42;;
45728;SDS011;31439;53.512;10.206;2022-11-20T16:23:38;4.18;;;3.30;;
45728;SDS011;31439;53.512;10.206;2022-11-20T16:26:13;6.18;;;3.33;;
45728;SDS011;31439;53.512;10.206;2022-11-20T16:28:40;5.57;;;3.63;;
45728;SDS011;31439;53.512;10.206;2022-11-20T16:31:10;6.18;;;4.13;;
45728;SDS011;31439;53.512;10.206;2022-11-20T16:33:37;5.15;;;3.58;;
45728;SDS011;31439;53.512;10.206;2022-11-20T16:36:07;4.63;;;3.25;;
45728;SDS011;31439;53.512;10.206;2022-11-20T16:38:33;5.80;;;3.90;;
45728;SDS011;31439;53.512;10.206;2022-11-20T16:41:00;4.93;;;3.65;;
45728;SDS011;31439;53.512;10.206;2022-11-20T16:43:26;4.78;;;3.30;;
45728;SDS011;31439;53.512;10.206;2022-11-20T16:45:52;5.97;;;3.80;;
45728;SDS011;31439;53.512;10.206;2022-11-20T16:48:19;6.68;;;4.70;;
45728;SDS011;31439;53.512;10.206;2022-11-20T16:50:49;6.28;;;4.32;;
45728;SDS011;31439;53.512;10.206;2022-11-20T16:53:15;6.90;;;4.30;;
45728;SDS011;31439;53.512;10.206;2022-11-20T16:55:41;4.95;;;4.20;;
45728;SDS011;31439;53.512;10.206;2022-11-20T16:58:08;6.15;;;4.18;;
45728;SDS011;31439;53.512;10.206;2022-11-20T17:00:37;6.35;;;4.18;;
45728;SDS011;31439;53.512;10.206;2022-11-20T17:03:04;7.13;;;4.40;;
45728;SDS011;31439;53.512;10.206;2022-11-20T17:05:31;5.32;;;3.92;;
45728;SDS011;31439;53.512;10.206;2022-11-20T17:07:57;8.57;;;5.20;;
45728;SDS011;31439;53.512;10.206;2022-11-20T17:10:23;8.98;;;6.40;;
45728;SDS011;31439;53.512;10.206;2022-11-20T17:12:49;9.65;;;5.22;;
45728;SDS011;31439;53.512;10.206;2022-11-20T17:15:16;8.48;;;5.63;;
45728;SDS011;31439;53.512;10.206;2022-11-20T17:17:42;7.15;;;4.88;;
45728;SDS011;31439;53.512;10.206;2022-11-20T17:20:08;8.98;;;5.30;;
45728;SDS011;31439;53.512;10.206;2022-11-20T17:22:36;7.90;;;5.15;;
45728;SDS011;31439;53.512;10.206;2022-11-20T17:25:02;7.63;;;5.20;;
45728;SDS011;31439;53.512;10.206;2022-11-20T17:27:28;8.13;;;5.75;;
45728;SDS011;31439;53.512;10.206;2022-11-20T17:29:54;8.35;;;5.40;;
45728;SDS011;31439;53.512;10.206;2022-11-20T17:32:22;8.63;;;5.70;;
45728;SDS011;31439;53.512;10.206;2022-11-20T17:34:48;8.68;;;5.57;;
45728;SDS011;31439;53.512;10.206;2022-11-20T17:37:14;11.07;;;5.22;;
45728;SDS011;31439;53.512;10.206;2022-11-20T17:39:41;7.45;;;5.03;;
45728;SDS011;31439;53.512;10.206;2022-11-20T17:42:08;11.68;;;5.07;;
45728;SDS011;31439;53.512;10.206;2022-11-20T17:44:53;8.05;;;5.28;;
45728;SDS011;31439;53.512;10.206;2022-11-20T17:47:20;8.45;;;5.68;;
45728;SDS011;31439;53.512;10.206;2022-11-20T17:49:46;6.15;;;4.75;;
45728;SDS011;31439;53.512;10.206;2022-11-20T17:52:12;7.00;;;4.90;;
45728;SDS011;31439;53.512;10.206;2022-11-20T17:54:38;7.78;;;4.82;;
45728;SDS011;31439;53.512;10.206;2022-11-20T17:57:05;7.70;;;5.53;;
45728;SDS011;31439;53.512;10.206;2022-11-20T17:59:50;7.72;;;4.97;;
45728;SDS011;31439;53.512;10.206;2022-11-20T18:02:16;7.63;;;5.18;;
45728;SDS011;31439;53.512;10.206;2022-11-20T18:04:42;8.13;;;5.43;;
45728;SDS011;31439;53.512;10.206;2022-11-20T18:07:08;7.28;;;5.25;;